Terminal Aerodrome Forecast
Issued by NWS Duluth, MN

Home | Current Version | Previous Version | Text Only | Print | Product List | Glossary On
Versions: 1 2 3 4 5 6 7 8 9 10 11 12 13 14 15 16 17 18 19 20 21 22 23 24 25
000
FTUS43 KDLH 231146
TAFDLH
TAF
KDLH 231146Z 2312/2412 09006KT 1SM -SN BKN007 OVC015
      TEMPO 2312/2314 3SM -SN OVC015
     FM231400 VRB02KT 4SM -SN OVC012
     FM231600 31005KT P6SM VCSH BKN025
     FM231900 32008KT P6SM BKN025
     FM240200 27006KT P6SM SCT035 BKN080=

USA.gov is the U.S. government's official web portal to all federal, state and local government web resources and services.